Terminal Aerodrome Forecast
Issued by NWS Pocatello, ID

Home | Current Version | Previous Version | Text Only | Print | Product List | Glossary On
Versions: 1 2 3 4 5 6 7 8 9 10 11 12 13 14 15 16 17 18 19
000
FTUS45 KPIH 231700
TAFPIH
TAF
KPIH 231720Z 2318/2418 22007KT P6SM SCT150
     FM231900 23015G23KT P6SM SCT150
     FM240300 21015KT P6SM BKN140
     FM241000 21015G22KT P6SM SCT140
     FM241700 24020G32KT P6SM FEW140=

USA.gov is the U.S. government's official web portal to all federal, state and local government web resources and services.